الصفحة الرئيسية
METAR-TAF:

METAR-TAF

مطار :

مطار بوجومبورا الدولي

بوجومبورا, بوروندي

دائرة عرض: 03-19S, خط طول: 029-19E, ارتفاع: 782 متر

مراقبة الطقس الحالي

تاريخ ووقت الإصدار 5ساعات و 56 دقيقة قبل الساعة 17:00UTC
ريح 24 عقدة من الجنوب
درجة الحرارة
ضغط 1011 hPa
الرؤية 10 كم أو أكثر
غيوم قليلة على ارتفاع 2500 قدم

METAR: HBBA 241700Z 18024KT 9999 FEW025 BKN30028/19 Q1011 NOSIG

زمن: 00:56 (22:56 UTC)

توقعات

تاريخ ووقت الإصدار 5ساعات و 56 دقيقة قبل الساعة 17:00UTC
التوقعات صالحة من24 الساعة 18 UTC إلى 25 الساعة 24 UTC
ريح 8 عقدة من الجنوب تتزايد حتى 25 عقدة
الرؤية 10 كم أو أكثر
الغيوم لا تقل 1500 م ولا وجود لمزنة ركامية السحاب الأسود

TAF: HBBA 241700Z 2418/2524 18005KT CAVOK BECMG2502/2504 36002KT 6000 FEW025 BECMG2507/2509 18010G25KT 9999 FEW035 BKN100 BECMG2516/ 2518 18008KT CAVOK

أرصاد الطقس والتوقعات من أكثر من 4000 مطار (تقارير الطقس للمطار METAR والتنبؤ بالطقس بالمطارTAF).

المحطات المتاحة هي النقط الصفراء والحمراء على الخريطة.

حرك المؤشر فوق النقطة لمعرفة اسم المحطة.

ثم انقر لمعرفة أرصاد وتوقعات الطقس.

لتغيير الخارطة: اضغط على الأزرار الخضراء مع رمز الصليب الأسود للتكبير. على الزر الأخضر مع شرطة للتصغير، أو على الأسهم الخضراء للخرائط المجاورة.


METAR-TAF: